Time;durP1;ratioP1;P1;durP2;ratioP2;P2;SDS_P1;SDS_P2;PMS_P1;PMS_P2;Temp;Humidity;BMP_temperature;BMP_pressure;BME280_temperature;BME280_humidity;BME280_pressure;Samples;Min_cycle;Max_cycle;Signal;HPM_P1;HPM_P2
2022/10/08 00:01:30;;;;;;;0.73;0.20;;;13.00;99.90;;;;;;4976793;28;20030;-69
2022/10/08 00:03:56;;;;;;;3.58;0.28;;;13.00;99.90;;;;;;4977454;28;20040;-69
2022/10/08 00:06:28;;;;;;;6.35;0.45;;;13.00;99.90;;;;;;4981674;28;20053;-70
2022/10/08 00:09:01;;;;;;;2.67;0.10;;;13.00;99.90;;;;;;4981808;28;20034;-69
2022/10/08 00:11:38;;;;;;;2.55;0.32;;;13.00;99.90;;;;;;4978075;28;20097;-70
2022/10/08 00:14:05;;;;;;;2.88;0.40;;;12.90;99.90;;;;;;4983059;28;20500;-71
2022/10/08 00:16:33;;;;;;;1.92;0.40;;;13.00;99.90;;;;;;4977767;28;20747;-71
2022/10/08 00:19:02;;;;;;;2.67;0.40;;;12.90;99.90;;;;;;4978871;28;20030;-71
2022/10/08 00:21:32;;;;;;;1.55;0.32;;;12.90;99.90;;;;;;4978794;28;20092;-71
2022/10/08 00:24:00;;;;;;;2.03;1.03;;;12.90;99.90;;;;;;4978481;28;20494;-71
2022/10/08 00:26:28;;;;;;;1.13;0.32;;;13.00;99.90;;;;;;4980888;28;20039;-71
2022/10/08 00:28:56;;;;;;;2.53;0.52;;;12.90;99.90;;;;;;4981058;28;20034;-71
2022/10/08 00:31:27;;;;;;;3.95;0.45;;;12.90;99.90;;;;;;4977562;28;20134;-72
2022/10/08 00:33:55;;;;;;;2.60;0.30;;;12.90;99.90;;;;;;4981011;28;20034;-71
2022/10/08 00:36:24;;;;;;;3.60;0.52;;;12.90;99.90;;;;;;4976093;28;20039;-71
2022/10/08 00:39:20;;;;;;;3.28;0.65;;;12.90;99.90;;;;;;4979800;28;20554;-71
2022/10/08 00:41:50;;;;;;;3.22;0.40;;;13.00;99.90;;;;;;4980227;28;20038;-70
2022/10/08 00:44:53;;;;;;;3.03;0.63;;;12.90;99.90;;;;;;4976908;28;20039;-70
2022/10/08 00:47:31;;;;;;;3.80;0.60;;;13.00;99.90;;;;;;4977124;28;20039;-70
2022/10/08 00:50:18;;;;;;;1.67;0.50;;;12.90;99.90;;;;;;4975659;28;20122;-71
2022/10/08 00:52:49;;;;;;;4.90;0.45;;;13.00;99.90;;;;;;4976235;28;20451;-70
2022/10/08 00:55:17;;;;;;;2.58;0.73;;;13.00;99.90;;;;;;4977252;28;20035;-71
2022/10/08 00:57:43;;;;;;;1.60;0.65;;;13.00;99.90;;;;;;4980687;28;20064;-71
2022/10/08 01:00:18;;;;;;;5.45;0.40;;;13.00;99.90;;;;;;4973416;28;20066;-71
2022/10/08 01:02:43;;;;;;;2.30;1.05;;;13.00;99.90;;;;;;4980606;28;20589;-71
2022/10/08 01:05:12;;;;;;;1.30;0.22;;;13.00;99.90;;;;;;4978001;28;20042;-71
2022/10/08 01:07:54;;;;;;;4.13;0.47;;;13.00;99.90;;;;;;4982655;28;20577;-71
2022/10/08 01:10:23;;;;;;;3.47;0.70;;;13.00;99.90;;;;;;4977195;28;20170;-70
2022/10/08 01:13:17;;;;;;;5.20;0.45;;;13.00;99.90;;;;;;4984180;28;20391;-71
2022/10/08 01:16:11;;;;;;;3.22;1.15;;;13.00;99.90;;;;;;4983708;28;20039;-70
2022/10/08 01:19:09;;;;;;;6.38;0.47;;;13.00;99.90;;;;;;4980372;28;20122;-70
2022/10/08 01:21:46;;;;;;;2.17;0.80;;;13.00;99.90;;;;;;4980874;28;20114;-70
2022/10/08 01:25:31;;;;;;;5.93;1.30;;;13.00;99.90;;;;;;4979254;28;20151;-70
2022/10/08 01:27:25;;;;;;;2.85;0.80;;;13.00;99.90;;;;;;4983448;28;20507;-70
2022/10/08 01:29:52;;;;;;;3.38;0.68;;;12.90;99.90;;;;;;4976520;28;20078;-70
2022/10/08 01:32:27;;;;;;;4.43;0.93;;;12.90;99.90;;;;;;4983542;28;20038;-70
2022/10/08 01:34:59;;;;;;;4.90;1.08;;;12.90;99.90;;;;;;4982046;28;20088;-70
2022/10/08 01:37:30;;;;;;;4.63;1.42;;;12.80;99.90;;;;;;4984231;28;20097;-69
2022/10/08 01:39:59;;;;;;;5.45;1.30;;;12.80;99.90;;;;;;4981511;28;20556;-70
2022/10/08 01:42:27;;;;;;;5.70;1.33;;;12.80;99.90;;;;;;4982454;28;20066;-70
2022/10/08 01:44:58;;;;;;;6.95;1.50;;;12.80;99.90;;;;;;4981227;28;20110;-70
2022/10/08 01:47:27;;;;;;;4.90;1.60;;;12.80;99.90;;;;;;4982670;28;20045;-70
2022/10/08 01:50:11;;;;;;;4.43;1.50;;;12.90;99.90;;;;;;4979438;28;20066;-70
2022/10/08 01:52:46;;;;;;;4.03;1.58;;;12.80;99.90;;;;;;4980722;28;20065;-70
2022/10/08 01:55:35;;;;;;;4.18;1.30;;;12.80;99.90;;;;;;4983878;28;20039;-70
2022/10/08 01:58:10;;;;;;;6.75;1.60;;;12.80;99.90;;;;;;4979505;28;20051;-70
2022/10/08 02:00:39;;;;;;;5.15;1.42;;;12.70;99.90;;;;;;4979452;28;20069;-71
2022/10/08 02:03:05;;;;;;;3.97;1.23;;;12.70;99.90;;;;;;4982445;28;20447;-71
2022/10/08 02:05:34;;;;;;;3.88;1.20;;;12.60;99.90;;;;;;4979441;28;20034;-71
2022/10/08 02:08:00;;;;;;;3.88;1.05;;;12.60;99.90;;;;;;4989056;28;20031;-71
2022/10/08 02:10:26;;;;;;;3.58;0.93;;;12.60;99.90;;;;;;4981654;28;24962;-71
2022/10/08 02:12:52;;;;;;;4.72;1.20;;;12.50;99.90;;;;;;4981954;28;20084;-71
2022/10/08 02:15:27;;;;;;;4.18;1.13;;;12.50;99.90;;;;;;4982866;28;20054;-70
2022/10/08 02:18:09;;;;;;;4.85;1.30;;;12.50;99.90;;;;;;4983992;28;20023;-71
2022/10/08 02:20:57;;;;;;;2.50;0.95;;;12.50;99.90;;;;;;4982135;28;20061;-69
2022/10/08 02:23:30;;;;;;;7.13;1.08;;;12.40;99.90;;;;;;4977364;28;20034;-71
2022/10/08 02:26:01;;;;;;;5.10;0.93;;;12.50;99.90;;;;;;4982335;28;20325;-70
2022/10/08 02:28:56;;;;;;;4.20;1.20;;;12.50;99.90;;;;;;4979471;28;20047;-70
2022/10/08 02:31:27;;;;;;;4.03;1.02;;;12.40;99.90;;;;;;4979260;28;20065;-71
2022/10/08 02:34:28;;;;;;;4.43;0.88;;;12.50;99.90;;;;;;4981593;28;20045;-69
2022/10/08 02:37:02;;;;;;;1.95;0.57;;;12.50;99.90;;;;;;4978100;28;20084;-72
2022/10/08 02:39:31;;;;;;;2.65;0.80;;;12.50;99.90;;;;;;4979170;28;20117;-69
2022/10/08 02:42:00;;;;;;;2.92;1.08;;;12.50;99.90;;;;;;4981108;28;20062;-70
2022/10/08 02:44:37;;;;;;;5.72;0.93;;;12.50;99.90;;;;;;4980392;28;20034;-70
2022/10/08 02:47:07;;;;;;;2.55;0.80;;;12.40;99.90;;;;;;4980404;28;20031;-70
2022/10/08 02:49:43;;;;;;;3.60;1.52;;;12.40;99.90;;;;;;4982284;28;20049;-72
2022/10/08 02:52:10;;;;;;;3.40;0.98;;;12.40;99.90;;;;;;4979283;28;20042;-71
2022/10/08 02:54:40;;;;;;;3.53;0.80;;;12.30;99.90;;;;;;4980267;28;20502;-71
2022/10/08 02:57:22;;;;;;;4.57;1.05;;;12.30;99.90;;;;;;4982198;28;20038;-72
2022/10/08 02:59:48;;;;;;;4.60;0.70;;;12.30;99.90;;;;;;4976249;28;20035;-71
2022/10/08 03:02:21;;;;;;;5.38;0.82;;;12.20;99.90;;;;;;4976587;28;20040;-71
2022/10/08 03:04:55;;;;;;;3.35;0.80;;;12.20;99.90;;;;;;4980214;28;20072;-70
2022/10/08 03:07:23;;;;;;;3.33;0.77;;;12.20;99.90;;;;;;4979272;28;20043;-70
2022/10/08 03:09:50;;;;;;;11.40;2.10;;;12.10;99.90;;;;;;4979879;28;20034;-71
2022/10/08 03:12:17;;;;;;;2.88;0.80;;;12.10;99.90;;;;;;4978736;28;20043;-70
2022/10/08 03:14:46;;;;;;;5.50;1.17;;;12.10;99.90;;;;;;4980596;28;20130;-71
2022/10/08 03:17:14;;;;;;;4.85;1.48;;;12.10;99.90;;;;;;4974956;28;20447;-71
2022/10/08 03:19:40;;;;;;;7.90;1.15;;;12.10;99.90;;;;;;4978525;28;20031;-70
2022/10/08 03:22:06;;;;;;;9.23;1.00;;;12.10;99.90;;;;;;4981048;28;20561;-71
2022/10/08 03:24:34;;;;;;;4.20;1.17;;;12.20;99.90;;;;;;4981019;28;20125;-70
2022/10/08 03:26:59;;;;;;;9.05;1.10;;;12.20;99.90;;;;;;4982725;28;20022;-70
2022/10/08 03:29:25;;;;;;;8.60;1.52;;;12.20;99.90;;;;;;4979644;28;20045;-70
2022/10/08 03:31:50;;;;;;;4.07;1.42;;;12.20;99.90;;;;;;4978775;28;20510;-71
2022/10/08 03:34:16;;;;;;;6.22;0.98;;;12.20;99.90;;;;;;4978333;28;20410;-70
2022/10/08 03:36:41;;;;;;;2.22;0.63;;;12.20;99.90;;;;;;4981793;28;20038;-70
2022/10/08 03:39:10;;;;;;;4.60;1.05;;;12.10;99.90;;;;;;4972497;28;20077;-70
2022/10/08 03:41:36;;;;;;;3.05;0.82;;;12.10;99.90;;;;;;4981778;28;20042;-71
2022/10/08 03:44:01;;;;;;;3.90;1.08;;;12.00;99.90;;;;;;4978846;28;20077;-71
2022/10/08 03:46:27;;;;;;;4.00;0.70;;;12.00;99.90;;;;;;4979841;28;20516;-71
2022/10/08 03:48:52;;;;;;;2.45;0.70;;;12.00;99.90;;;;;;4980314;28;20113;-70
2022/10/08 03:51:20;;;;;;;3.50;1.10;;;11.90;99.90;;;;;;4981721;28;20105;-70
2022/10/08 03:53:46;;;;;;;5.55;0.80;;;11.90;99.90;;;;;;4978453;28;20255;-70
2022/10/08 03:56:14;;;;;;;5.07;0.70;;;11.90;99.90;;;;;;4981250;28;20375;-70
2022/10/08 03:58:40;;;;;;;3.65;1.42;;;11.80;99.90;;;;;;4982298;28;20034;-71
2022/10/08 04:01:11;;;;;;;2.60;1.30;;;11.80;99.90;;;;;;4974369;28;20117;-70
2022/10/08 04:03:37;;;;;;;4.70;0.70;;;11.70;99.90;;;;;;4972531;28;20059;-70
2022/10/08 04:06:03;;;;;;;4.80;0.88;;;11.70;99.90;;;;;;4979620;28;20623;-71
2022/10/08 04:08:29;;;;;;;4.10;1.17;;;11.60;99.90;;;;;;4977339;28;20439;-70
2022/10/08 04:10:54;;;;;;;6.80;0.98;;;11.60;99.90;;;;;;4974852;28;20097;-70
2022/10/08 04:13:20;;;;;;;5.38;1.30;;;11.60;99.90;;;;;;4978938;28;20035;-70
2022/10/08 04:15:47;;;;;;;4.05;0.90;;;11.60;99.90;;;;;;4980569;28;20089;-70
2022/10/08 04:18:13;;;;;;;3.65;0.68;;;11.50;99.90;;;;;;4977592;28;20411;-70
2022/10/08 04:20:41;;;;;;;4.45;1.00;;;11.50;99.90;;;;;;4977962;28;20026;-70
2022/10/08 04:23:07;;;;;;;3.38;0.65;;;11.50;99.90;;;;;;4980785;28;20045;-73
2022/10/08 04:25:34;;;;;;;5.32;1.30;;;11.50;99.90;;;;;;4978878;28;20034;-70
2022/10/08 04:28:00;;;;;;;3.92;1.40;;;11.50;99.90;;;;;;4978507;28;20039;-71
2022/10/08 04:30:25;;;;;;;6.28;0.95;;;11.50;99.90;;;;;;4978220;28;20121;-70
2022/10/08 04:32:51;;;;;;;3.55;1.23;;;11.50;99.90;;;;;;4979244;28;20525;-71
2022/10/08 04:35:16;;;;;;;7.10;1.05;;;11.50;99.90;;;;;;4981316;28;20454;-69
2022/10/08 04:37:42;;;;;;;5.68;1.42;;;11.60;99.90;;;;;;4978422;28;20035;-70
2022/10/08 04:40:08;;;;;;;4.68;1.30;;;11.60;99.90;;;;;;4980537;28;20085;-71
2022/10/08 04:42:34;;;;;;;13.90;1.88;;;11.60;99.90;;;;;;4980776;28;20455;-70
2022/10/08 04:44:59;;;;;;;2.78;0.88;;;11.60;99.90;;;;;;4982963;28;20398;-69
2022/10/08 04:47:25;;;;;;;10.90;1.33;;;11.50;99.90;;;;;;4980522;28;20030;-70
2022/10/08 04:49:50;;;;;;;7.50;1.65;;;11.50;99.90;;;;;;4981547;28;20753;-70
2022/10/08 04:52:17;;;;;;;4.35;0.85;;;11.50;99.90;;;;;;4982204;28;20403;-70
2022/10/08 04:54:43;;;;;;;5.78;1.00;;;11.50;99.90;;;;;;4984486;28;20062;-70
2022/10/08 04:57:09;;;;;;;6.30;1.48;;;11.50;99.90;;;;;;4984010;28;20443;-69
2022/10/08 04:59:35;;;;;;;5.57;0.88;;;11.40;99.90;;;;;;4981712;28;20043;-70
2022/10/08 05:02:00;;;;;;;6.72;1.10;;;11.40;99.90;;;;;;4982948;28;20033;-70
2022/10/08 05:04:26;;;;;;;4.22;1.15;;;11.40;99.90;;;;;;4980127;28;20784;-70
2022/10/08 05:06:51;;;;;;;5.22;0.68;;;11.30;99.90;;;;;;4981977;28;20064;-70
2022/10/08 05:09:17;;;;;;;3.35;0.70;;;11.30;99.90;;;;;;4981332;28;20064;-71
2022/10/08 05:11:43;;;;;;;3.28;0.70;;;11.30;99.90;;;;;;4981153;28;20091;-70
2022/10/08 05:14:09;;;;;;;5.30;1.60;;;11.30;99.90;;;;;;4979374;28;20058;-71
2022/10/08 05:16:35;;;;;;;7.22;0.85;;;11.20;99.90;;;;;;4978737;28;20054;-71
2022/10/08 05:19:02;;;;;;;7.70;1.35;;;11.20;99.90;;;;;;4984621;28;20031;-71
2022/10/08 05:21:29;;;;;;;8.18;1.13;;;11.20;99.90;;;;;;4982896;28;20042;-70
2022/10/08 05:23:58;;;;;;;6.68;0.90;;;11.20;99.90;;;;;;4980326;28;20798;-70
2022/10/08 05:26:33;;;;;;;7.47;1.05;;;11.10;99.90;;;;;;4984191;28;20035;-70
2022/10/08 05:28:59;;;;;;;10.05;1.25;;;11.10;99.90;;;;;;4979747;28;20030;-71
2022/10/08 05:31:27;;;;;;;9.82;1.27;;;11.10;99.90;;;;;;4980404;28;20053;-71
2022/10/08 05:33:53;;;;;;;10.98;2.25;;;11.10;99.90;;;;;;4979394;28;20494;-70
2022/10/08 05:36:25;;;;;;;2.75;1.00;;;11.00;99.90;;;;;;4984264;28;20130;-69
2022/10/08 05:38:51;;;;;;;2.83;0.80;;;11.00;99.90;;;;;;4982768;28;20034;-69
2022/10/08 05:41:25;;;;;;;8.70;0.95;;;11.00;99.90;;;;;;4980754;28;20049;-70
2022/10/08 05:43:52;;;;;;;3.20;1.13;;;11.00;99.90;;;;;;4979151;28;20034;-70
2022/10/08 05:46:18;;;;;;;3.55;0.77;;;11.00;99.90;;;;;;4980169;28;20759;-71
2022/10/08 05:48:44;;;;;;;5.22;0.50;;;10.90;99.90;;;;;;4980770;28;20045;-71
2022/10/08 05:51:12;;;;;;;7.13;1.17;;;10.90;99.90;;;;;;4984325;28;20042;-70
2022/10/08 05:53:40;;;;;;;6.25;1.60;;;10.90;99.90;;;;;;4980882;28;20077;-70
2022/10/08 05:56:08;;;;;;;3.60;0.95;;;10.80;99.90;;;;;;4981992;28;20091;-71
2022/10/08 05:58:35;;;;;;;6.47;0.70;;;10.80;99.90;;;;;;4980515;28;20039;-69
2022/10/08 06:01:06;;;;;;;4.00;1.30;;;10.80;99.90;;;;;;4984347;28;20049;-71
2022/10/08 06:03:32;;;;;;;4.55;0.60;;;10.70;99.90;;;;;;4975720;28;20038;-70
2022/10/08 06:06:03;;;;;;;6.43;0.68;;;10.70;99.90;;;;;;4978999;28;20039;-69
2022/10/08 06:08:29;;;;;;;5.47;0.60;;;10.70;99.90;;;;;;4983335;28;20062;-70
2022/10/08 06:10:55;;;;;;;3.47;0.90;;;10.60;99.90;;;;;;4983008;28;20105;-71
2022/10/08 06:13:21;;;;;;;2.97;0.80;;;10.60;99.90;;;;;;4985466;28;20053;-71
2022/10/08 06:15:58;;;;;;;9.35;1.90;;;10.60;99.90;;;;;;4990506;28;20042;-71
2022/10/08 06:18:26;;;;;;;2.70;0.52;;;10.60;99.90;;;;;;4987791;28;20034;-71
2022/10/08 06:20:52;;;;;;;5.00;0.45;;;10.50;99.90;;;;;;4988698;28;20030;-70
2022/10/08 06:23:18;;;;;;;4.78;0.70;;;10.50;99.90;;;;;;4988742;28;20034;-73
2022/10/08 06:25:44;;;;;;;7.45;1.17;;;10.60;99.90;;;;;;4976686;28;20039;-71
2022/10/08 06:28:10;;;;;;;9.07;0.93;;;10.60;99.90;;;;;;4982144;28;20045;-71
2022/10/08 06:30:39;;;;;;;4.35;1.20;;;10.60;99.90;;;;;;4988339;28;20053;-70
2022/10/08 06:33:04;;;;;;;4.38;1.10;;;10.60;99.90;;;;;;4988730;28;20759;-70
2022/10/08 06:35:30;;;;;;;3.17;0.70;;;10.60;99.90;;;;;;4990267;28;20113;-75
2022/10/08 06:37:55;;;;;;;6.65;1.50;;;10.50;99.90;;;;;;4989018;28;20031;-71
2022/10/08 06:40:21;;;;;;;8.00;0.70;;;10.50;99.90;;;;;;4977429;28;20051;-71
2022/10/08 06:42:46;;;;;;;6.70;0.70;;;10.50;99.90;;;;;;4990393;28;20062;-71
2022/10/08 06:45:12;;;;;;;8.45;0.77;;;10.50;99.90;;;;;;4989921;28;20046;-70
2022/10/08 06:47:37;;;;;;;3.03;0.93;;;10.60;99.90;;;;;;4990671;28;20047;-72
2022/10/08 06:50:04;;;;;;;2.97;0.80;;;10.60;99.90;;;;;;4990422;28;20038;-70
2022/10/08 06:52:29;;;;;;;7.95;0.50;;;10.60;99.90;;;;;;4978808;28;20045;-69
2022/10/08 06:54:55;;;;;;;5.07;0.65;;;10.60;99.90;;;;;;4983740;28;20038;-70
2022/10/08 06:57:20;;;;;;;5.85;1.10;;;10.70;99.90;;;;;;4979879;28;20083;-70
2022/10/08 06:59:46;;;;;;;4.38;0.50;;;10.70;99.90;;;;;;4980345;28;20525;-70
2022/10/08 07:02:11;;;;;;;6.68;0.60;;;10.70;99.90;;;;;;4979397;28;20089;-70
2022/10/08 07:04:37;;;;;;;7.53;1.02;;;10.70;99.90;;;;;;4977846;28;20027;-70
2022/10/08 07:07:03;;;;;;;7.43;0.55;;;10.80;99.90;;;;;;4978650;28;20399;-70
2022/10/08 07:09:28;;;;;;;5.70;0.85;;;10.90;99.90;;;;;;4984858;28;20653;-70
2022/10/08 07:11:54;;;;;;;4.75;0.88;;;10.90;99.90;;;;;;4976806;28;20038;-70
2022/10/08 07:14:19;;;;;;;5.80;0.80;;;11.00;99.90;;;;;;4978764;28;20043;-71
2022/10/08 07:16:45;;;;;;;11.43;0.68;;;11.10;99.90;;;;;;4979170;28;20117;-71
2022/10/08 07:19:11;;;;;;;5.28;0.65;;;11.10;99.90;;;;;;4979079;28;20104;-70
2022/10/08 07:21:36;;;;;;;5.47;0.65;;;11.20;99.90;;;;;;4980683;28;20455;-70
2022/10/08 07:24:02;;;;;;;5.93;0.85;;;11.30;99.90;;;;;;4980276;28;20038;-70
2022/10/08 07:26:31;;;;;;;5.50;0.73;;;11.30;99.90;;;;;;4977269;28;20053;-70
2022/10/08 07:29:00;;;;;;;7.72;0.90;;;11.40;99.90;;;;;;4978479;28;20467;-70
2022/10/08 07:31:28;;;;;;;8.40;0.88;;;11.50;99.90;;;;;;4984101;28;20092;-70
2022/10/08 07:33:55;;;;;;;4.53;0.60;;;11.50;99.90;;;;;;4978994;28;20050;-70
2022/10/08 07:36:22;;;;;;;1.95;0.65;;;11.60;99.90;;;;;;4979948;28;20641;-71
2022/10/08 07:38:52;;;;;;;8.68;1.13;;;11.70;99.90;;;;;;4978431;28;20026;-70
2022/10/08 07:41:18;;;;;;;3.63;0.50;;;11.80;99.90;;;;;;4979340;28;20538;-71
2022/10/08 07:43:43;;;;;;;4.60;0.52;;;11.90;99.90;;;;;;4975176;28;20133;-71
2022/10/08 07:46:10;;;;;;;2.30;0.43;;;12.00;99.90;;;;;;4980606;28;20427;-71
2022/10/08 07:48:37;;;;;;;5.65;0.68;;;12.10;99.90;;;;;;4976342;28;20027;-71
2022/10/08 07:51:11;;;;;;;4.20;0.50;;;12.20;99.90;;;;;;4979269;28;20543;-70
2022/10/08 07:53:37;;;;;;;5.15;1.05;;;12.30;99.90;;;;;;4978785;28;20039;-70
2022/10/08 07:56:04;;;;;;;3.45;0.40;;;12.40;99.90;;;;;;4981601;28;20031;-71
2022/10/08 07:58:30;;;;;;;5.72;0.43;;;12.50;99.90;;;;;;4975734;28;20039;-71
2022/10/08 08:00:57;;;;;;;2.88;0.60;;;12.60;99.90;;;;;;4979542;28;20030;-71
2022/10/08 08:03:23;;;;;;;3.53;0.60;;;12.70;99.90;;;;;;4971759;28;20065;-71
2022/10/08 08:05:48;;;;;;;10.43;1.42;;;12.80;99.90;;;;;;4976305;28;20069;-71
2022/10/08 08:08:14;;;;;;;3.88;0.55;;;12.90;99.90;;;;;;4977368;28;20027;-71
2022/10/08 08:10:39;;;;;;;2.85;0.20;;;13.00;99.90;;;;;;4978876;28;20031;-70
2022/10/08 08:13:05;;;;;;;2.70;0.65;;;13.10;99.90;;;;;;4977546;28;20561;-70
2022/10/08 08:15:31;;;;;;;4.25;0.52;;;13.20;99.90;;;;;;4980712;28;20046;-71
2022/10/08 08:17:57;;;;;;;3.42;0.30;;;13.20;99.90;;;;;;4984139;28;20049;-70
2022/10/08 08:20:22;;;;;;;2.67;0.32;;;13.30;99.90;;;;;;4980918;28;20580;-69
2022/10/08 08:22:48;;;;;;;4.10;0.32;;;13.30;99.90;;;;;;4979220;28;20046;-70
2022/10/08 08:25:13;;;;;;;7.85;1.10;;;13.40;99.90;;;;;;4982907;28;20039;-70
2022/10/08 08:27:39;;;;;;;1.27;0.43;;;13.60;99.90;;;;;;4978534;28;20051;-69
2022/10/08 08:30:05;;;;;;;10.93;1.13;;;13.70;99.90;;;;;;4984106;28;20033;-70
2022/10/08 08:32:31;;;;;;;2.10;0.30;;;13.80;99.90;;;;;;4984299;28;20031;-69
2022/10/08 08:34:57;;;;;;;5.97;1.33;;;13.90;99.90;;;;;;4982319;28;20074;-69
2022/10/08 08:37:22;;;;;;;4.85;0.85;;;13.90;99.90;;;;;;4979349;28;20055;-69
2022/10/08 08:39:48;;;;;;;1.80;0.60;;;14.10;99.90;;;;;;4979676;28;20042;-68
2022/10/08 08:42:26;;;;;;;3.33;0.30;;;14.10;99.90;;;;;;4978902;28;20047;-70
2022/10/08 08:44:59;;;;;;;3.22;0.47;;;14.20;99.90;;;;;;4979060;28;20552;-69
2022/10/08 08:47:39;;;;;;;3.08;0.50;;;14.30;99.90;;;;;;4981452;28;20038;-69
2022/10/08 08:50:07;;;;;;;3.85;0.50;;;14.40;99.90;;;;;;4981021;28;20038;-71
2022/10/08 08:52:41;;;;;;;3.50;0.40;;;14.50;99.90;;;;;;4982558;28;20475;-69
2022/10/08 08:55:25;;;;;;;6.10;0.32;;;14.50;99.90;;;;;;4980319;28;20073;-68
2022/10/08 08:58:01;;;;;;;2.13;0.30;;;14.60;99.90;;;;;;4976118;28;20518;-71
2022/10/08 09:00:34;;;;;;;6.50;0.63;;;14.70;99.90;;;;;;4984002;28;20068;-71
2022/10/08 09:03:11;;;;;;;6.32;0.43;;;14.70;99.90;;;;;;4982521;28;20035;-69
2022/10/08 09:05:41;;;;;;;6.28;0.50;;;14.80;99.90;;;;;;4980965;28;20042;-69
2022/10/08 09:08:33;;;;;;;3.03;0.20;;;14.90;99.90;;;;;;4983368;28;20503;-69
2022/10/08 09:11:01;;;;;;;3.10;0.30;;;14.80;99.90;;;;;;4977968;28;20038;-69
2022/10/08 09:13:38;;;;;;;1.75;0.35;;;15.00;99.90;;;;;;4983133;28;20422;-69
2022/10/08 09:16:04;;;;;;;4.22;0.43;;;14.90;99.90;;;;;;4981317;28;20131;-70
2022/10/08 09:18:31;;;;;;;2.45;0.38;;;15.00;99.90;;;;;;4981772;28;20114;-70
2022/10/08 09:20:57;;;;;;;4.50;0.40;;;15.10;99.90;;;;;;4979912;28;20117;-70
2022/10/08 09:23:24;;;;;;;1.92;0.40;;;15.30;99.90;;;;;;4987349;28;20038;-70
2022/10/08 09:26:14;;;;;;;1.65;0.45;;;15.30;99.90;;;;;;4984128;28;20034;-70
2022/10/08 09:28:43;;;;;;;4.60;1.00;;;15.50;99.90;;;;;;4981598;28;20499;-69
2022/10/08 09:31:23;;;;;;;1.20;0.20;;;15.40;99.90;;;;;;4981293;28;20046;-71
2022/10/08 09:34:17;;;;;;;5.05;1.20;;;15.20;99.90;;;;;;4976895;28;20166;-69
2022/10/08 09:36:52;;;;;;;6.25;0.57;;;15.00;99.90;;;;;;4981206;28;20485;-70
2022/10/08 09:39:19;;;;;;;5.65;0.70;;;15.00;99.90;;;;;;4976134;28;20054;-70
2022/10/08 09:41:46;;;;;;;6.13;0.80;;;15.10;99.90;;;;;;4983081;28;20384;-68
2022/10/08 09:44:14;;;;;;;2.33;0.35;;;15.30;99.90;;;;;;4979487;28;20037;-68
2022/10/08 09:46:40;;;;;;;4.80;0.77;;;15.30;99.90;;;;;;4981387;28;20411;-69
2022/10/08 09:49:26;;;;;;;5.53;0.63;;;15.50;99.90;;;;;;4981274;28;20040;-70
2022/10/08 09:51:52;;;;;;;3.20;0.38;;;15.60;99.90;;;;;;4975957;28;20041;-70
2022/10/08 09:54:24;;;;;;;2.08;0.40;;;15.70;99.90;;;;;;4982308;28;20050;-69
2022/10/08 09:56:53;;;;;;;4.07;0.60;;;15.70;99.90;;;;;;4975539;28;20050;-69
2022/10/08 09:59:22;;;;;;;3.42;0.30;;;15.70;99.90;;;;;;4975638;28;20073;-69
2022/10/08 10:01:48;;;;;;;4.90;0.93;;;15.50;99.90;;;;;;4982708;28;20073;-70
2022/10/08 10:04:39;;;;;;;5.85;1.00;;;15.40;99.90;;;;;;4978313;28;20038;-71
2022/10/08 10:07:05;;;;;;;2.50;0.30;;;15.10;99.90;;;;;;4987805;28;20050;-70
2022/10/08 10:09:45;;;;;;;5.85;0.20;;;14.90;99.90;;;;;;4985887;28;20042;-70
2022/10/08 10:12:36;;;;;;;10.82;1.08;;;14.70;99.90;;;;;;4976803;28;20580;-68
2022/10/08 10:15:25;;;;;;;4.68;0.47;;;14.60;99.90;;;;;;4977645;28;20046;-70
2022/10/08 10:17:54;;;;;;;5.63;0.40;;;14.30;99.90;;;;;;4981633;28;20035;-69
2022/10/08 10:20:26;;;;;;;1.92;0.30;;;13.90;99.90;;;;;;4977664;28;20535;-69
2022/10/08 10:22:58;;;;;;;2.50;0.40;;;13.60;99.90;;;;;;4981642;28;20035;-69
2022/10/08 10:25:29;;;;;;;2.05;0.10;;;13.50;99.90;;;;;;4980011;28;20034;-68
2022/10/08 10:28:05;;;;;;;2.17;0.40;;;13.50;99.90;;;;;;4982475;28;20542;-71
2022/10/08 10:30:41;;;;;;;4.65;1.58;;;13.50;99.90;;;;;;4969548;28;20050;-69
2022/10/08 10:33:23;;;;;;;2.42;0.55;;;13.40;99.90;;;;;;4980641;28;20044;-70
2022/10/08 10:35:59;;;;;;;8.13;1.02;;;13.40;99.90;;;;;;4968063;28;20035;-69
2022/10/08 10:38:27;;;;;;;7.38;0.60;;;13.50;99.90;;;;;;4975292;28;20089;-67
2022/10/08 10:41:31;;;;;;;1.60;0.50;;;13.70;99.90;;;;;;4978374;28;20027;-68
2022/10/08 10:44:03;;;;;;;3.45;0.40;;;14.00;99.90;;;;;;4981363;28;20039;-70
2022/10/08 10:46:48;;;;;;;2.67;0.40;;;14.20;99.90;;;;;;4979795;28;20515;-69
2022/10/08 10:49:17;;;;;;;4.63;0.82;;;14.30;99.90;;;;;;4977866;28;20035;-71
2022/10/08 10:52:20;;;;;;;4.38;0.60;;;14.50;99.90;;;;;;4981425;28;20038;-69
2022/10/08 10:55:24;;;;;;;3.45;0.47;;;14.60;99.90;;;;;;4981332;28;20582;-70
2022/10/08 10:58:09;;;;;;;10.05;0.70;;;14.70;99.90;;;;;;4956897;28;20035;-69
2022/10/08 11:00:56;;;;;;;8.70;1.17;;;14.70;99.90;;;;;;4978992;28;20623;-69
2022/10/08 11:03:53;;;;;;;5.40;1.30;;;14.60;99.90;;;;;;4971010;28;20027;-70
2022/10/08 11:06:49;;;;;;;1.88;0.28;;;14.70;99.90;;;;;;4969836;28;20035;-68
2022/10/08 11:09:39;;;;;;;5.22;0.50;;;15.00;99.90;;;;;;4973332;28;20038;-68
2022/10/08 11:12:26;;;;;;;3.15;0.40;;;15.30;99.90;;;;;;4971063;28;20097;-69
2022/10/08 11:15:22;;;;;;;2.80;0.45;;;15.60;99.90;;;;;;4974232;28;20042;-70
2022/10/08 11:18:06;;;;;;;3.10;0.40;;;15.80;99.90;;;;;;4973833;28;20042;-69
2022/10/08 11:21:01;;;;;;;1.95;0.35;;;16.00;99.90;;;;;;4971845;28;20034;-71
2022/10/08 11:23:38;;;;;;;8.45;1.15;;;16.10;99.90;;;;;;4962099;28;20041;-67
2022/10/08 11:26:18;;;;;;;1.73;0.40;;;16.30;99.90;;;;;;4984243;28;20030;-70
2022/10/08 11:28:50;;;;;;;4.78;0.68;;;16.50;99.90;;;;;;4971840;28;20086;-69
2022/10/08 11:31:35;;;;;;;1.10;0.20;;;16.60;99.90;;;;;;4979681;28;20503;-71
2022/10/08 11:34:02;;;;;;;6.22;0.68;;;16.70;99.90;;;;;;4976834;28;20129;-71
2022/10/08 11:36:43;;;;;;;1.80;0.30;;;16.80;99.90;;;;;;4978750;28;20077;-69
2022/10/08 11:39:25;;;;;;;4.78;1.05;;;16.70;99.90;;;;;;4981087;28;20039;-71
2022/10/08 11:42:00;;;;;;;3.58;0.22;;;16.70;99.90;;;;;;4977338;28;20121;-69
2022/10/08 11:44:26;;;;;;;5.03;0.65;;;16.70;99.90;;;;;;4969375;28;20045;-68
2022/10/08 11:46:51;;;;;;;3.95;0.57;;;16.80;99.90;;;;;;4978539;28;20395;-70
2022/10/08 11:49:21;;;;;;;2.22;0.50;;;16.80;99.90;;;;;;4984065;28;20038;-71
2022/10/08 11:51:50;;;;;;;4.57;0.40;;;16.80;99.90;;;;;;4977580;28;20050;-71
2022/10/08 11:54:24;;;;;;;6.05;0.30;;;16.70;99.90;;;;;;4979770;28;20058;-69
2022/10/08 11:57:08;;;;;;;5.30;0.35;;;16.60;99.90;;;;;;4979789;28;20037;-69
2022/10/08 11:59:40;;;;;;;5.55;0.43;;;16.60;99.90;;;;;;4957733;28;20063;-70
2022/10/08 12:02:30;;;;;;;3.25;0.60;;;16.50;99.90;;;;;;4977081;28;20038;-69
2022/10/08 12:05:36;;;;;;;3.73;0.73;;;16.50;99.90;;;;;;4968021;28;20046;-69
2022/10/08 12:08:04;;;;;;;3.47;0.55;;;16.40;99.90;;;;;;4975036;28;20408;-69
2022/10/08 12:10:29;;;;;;;4.07;0.30;;;16.30;99.90;;;;;;4976901;28;20038;-70
2022/10/08 12:12:59;;;;;;;7.05;1.00;;;16.20;99.90;;;;;;4977108;28;20395;-70
2022/10/08 12:15:26;;;;;;;4.43;0.57;;;16.10;99.90;;;;;;4979645;28;20050;-68
2022/10/08 12:18:16;;;;;;;6.07;0.93;;;15.90;99.90;;;;;;4982671;28;20041;-71
2022/10/08 12:20:42;;;;;;;2.83;0.30;;;15.90;99.90;;;;;;4978667;28;20042;-69
2022/10/08 12:23:08;;;;;;;3.83;0.70;;;15.70;99.90;;;;;;4982982;28;20514;-70
2022/10/08 12:25:37;;;;;;;1.90;0.17;;;15.80;99.90;;;;;;4978164;28;20031;-70
2022/10/08 12:28:21;;;;;;;6.80;0.73;;;15.80;99.90;;;;;;4977383;28;20419;-70
2022/10/08 12:30:47;;;;;;;3.28;1.00;;;15.90;99.90;;;;;;4972305;28;20129;-69
2022/10/08 12:33:14;;;;;;;3.80;0.40;;;15.90;99.90;;;;;;4976529;28;20050;-69
2022/10/08 12:36:09;;;;;;;2.40;0.22;;;15.90;99.90;;;;;;4979945;28;20039;-70
2022/10/08 12:39:05;;;;;;;2.08;0.30;;;16.00;99.90;;;;;;4975887;28;20101;-70
2022/10/08 12:41:54;;;;;;;3.10;0.20;;;15.90;99.90;;;;;;4973498;28;20115;-68
2022/10/08 12:44:22;;;;;;;3.85;0.73;;;15.90;99.90;;;;;;4973766;28;20049;-69
2022/10/08 12:47:13;;;;;;;2.30;0.50;;;15.90;99.90;;;;;;4980710;28;20117;-69
2022/10/08 12:50:17;;;;;;;3.95;0.20;;;15.90;99.90;;;;;;4976964;28;20486;-70
2022/10/08 12:52:43;;;;;;;2.42;0.47;;;15.90;99.90;;;;;;4972735;28;20065;-68
2022/10/08 12:55:19;;;;;;;3.70;0.40;;;15.70;99.90;;;;;;4976354;28;20066;-71
2022/10/08 12:57:47;;;;;;;1.35;0.30;;;15.60;99.90;;;;;;4970612;28;20110;-70
2022/10/08 13:00:24;;;;;;;2.42;0.50;;;15.50;99.90;;;;;;4979735;28;20081;-71
2022/10/08 13:03:00;;;;;;;3.28;0.40;;;15.50;99.90;;;;;;4981353;28;20061;-70
2022/10/08 13:05:28;;;;;;;1.88;0.30;;;15.50;99.90;;;;;;4982023;28;20039;-70
2022/10/08 13:07:54;;;;;;;2.83;0.40;;;15.50;99.90;;;;;;4980444;28;20041;-70
2022/10/08 13:10:27;;;;;;;2.03;0.40;;;15.60;99.90;;;;;;4978894;28;20642;-70